Time;durP1;ratioP1;P1;durP2;ratioP2;P2;SDS_P1;SDS_P2;PMS_P1;PMS_P2;Temp;Humidity;BMP_temperature;BMP_pressure;BME280_temperature;BME280_humidity;BME280_pressure;Samples;Min_cycle;Max_cycle;Signal;HPM_P1;HPM_P2
2024/03/06 00:01:29;;;;;;;17.40;9.80;;;;;;;6.38;61.30;99008.25;104823;1264;73035;-27
2024/03/06 00:11:37;;;;;;;16.70;6.60;;;;;;;5.89;64.01;99012.00;102673;1291;598919;-27
2024/03/06 00:14:05;;;;;;;16.50;9.40;;;;;;;5.78;64.54;99012.18;104833;1270;61127;-28
2024/03/06 00:16:33;;;;;;;15.10;5.10;;;;;;;5.74;64.76;99015.65;104828;1266;61117;-28
2024/03/06 00:19:02;;;;;;;5.00;3.80;;;;;;;6.27;64.22;99013.79;104846;1266;71142;-26
2024/03/06 00:28:18;;;;;;;19.70;9.60;;;;;;;6.41;63.08;99012.20;102711;1290;600089;-28
2024/03/06 00:30:46;;;;;;;11.40;6.80;;;;;;;6.23;63.56;99009.75;104830;1271;61112;-28
2024/03/06 00:33:14;;;;;;;20.00;7.70;;;;;;;5.97;64.35;99008.04;104906;1266;61177;-27
2024/03/06 00:42:41;;;;;;;9.10;5.60;;;;;;;5.47;66.91;99013.48;102767;1292;599444;-27
2024/03/06 00:45:09;;;;;;;16.30;8.90;;;;;;;5.85;66.48;99018.96;104862;1267;61126;-27
2024/03/06 00:47:37;;;;;;;14.20;7.60;;;;;;;6.44;64.50;99013.70;104897;1266;61091;-26
2024/03/06 00:50:07;;;;;;;10.40;5.80;;;;;;;6.46;63.66;99011.89;104814;1266;70745;-27
2024/03/06 01:00:16;;;;;;;11.90;8.00;;;;;;;6.10;64.67;99002.47;102770;1290;600892;-27
2024/03/06 01:02:43;;;;;;;7.50;5.30;;;;;;;6.07;64.66;99004.02;104888;1264;61181;-27
2024/03/06 01:05:11;;;;;;;15.70;9.20;;;;;;;5.88;65.02;99002.45;105061;1264;61513;-27
2024/03/06 01:07:39;;;;;;;13.80;8.30;;;;;;;5.76;65.62;99003.33;104864;1264;71861;-27
2024/03/06 01:10:08;;;;;;;11.10;6.10;;;;;;;5.62;66.29;99011.10;104987;1267;74326;-27
2024/03/06 01:12:36;;;;;;;9.60;6.30;;;;;;;6.20;65.29;99009.55;104753;1270;70902;-27
2024/03/06 01:15:05;;;;;;;10.50;7.40;;;;;;;6.63;63.68;99010.60;104936;1264;226550;-27
2024/03/06 01:17:33;;;;;;;11.50;7.00;;;;;;;6.61;63.06;99006.75;105136;1265;61115;-27
2024/03/06 01:20:03;;;;;;;11.60;7.90;;;;;;;6.45;63.38;99010.91;105567;1258;72213;-27
2024/03/06 01:22:31;;;;;;;14.70;8.80;;;;;;;6.25;64.19;99013.71;105896;1252;74457;-27
2024/03/06 01:32:37;;;;;;;12.80;8.10;;;;;;;5.72;66.05;99016.33;102736;1292;600049;-27
2024/03/06 01:35:06;;;;;;;11.00;6.40;;;;;;;5.59;66.38;99016.94;104994;1265;61241;-28
2024/03/06 01:37:34;;;;;;;14.10;7.50;;;;;;;6.09;65.51;99022.35;104843;1266;61171;-27
2024/03/06 01:46:56;;;;;;;10.70;6.70;;;;;;;6.26;64.01;99019.14;102751;1294;599422;-27
2024/03/06 01:49:24;;;;;;;17.80;9.00;;;;;;;5.73;65.68;99019.33;104838;1266;61156;-26
2024/03/06 01:52:07;;;;;;;12.70;7.80;;;;;;;5.91;64.82;99018.95;105494;1257;61191;-26
2024/03/06 02:02:12;;;;;;;16.60;6.20;;;;;;;5.56;65.67;99015.38;102693;1293;599957;-25
2024/03/06 02:04:40;;;;;;;8.80;5.00;;;;;;;5.71;65.63;99018.41;104813;1270;61273;-26
2024/03/06 02:07:10;;;;;;;15.70;7.70;;;;;;;6.38;63.72;99015.34;104816;1270;61164;-39
2024/03/06 02:09:38;;;;;;;12.20;7.50;;;;;;;6.59;62.52;99019.11;104770;1265;71035;-27
2024/03/06 02:12:08;;;;;;;10.70;7.40;;;;;;;6.58;62.18;99016.83;104796;1271;74269;-27
2024/03/06 02:14:36;;;;;;;13.70;7.50;;;;;;;6.61;62.19;99014.48;104827;1270;72014;-28
2024/03/06 02:17:04;;;;;;;6.80;5.30;;;;;;;6.46;62.19;99017.86;104818;1269;191988;-27
2024/03/06 02:19:39;;;;;;;9.70;6.50;;;;;;;6.15;62.62;99017.66;104942;1264;61145;-27
2024/03/06 02:22:07;;;;;;;7.80;6.00;;;;;;;5.97;63.55;99021.67;104811;1267;71114;-28
2024/03/06 02:24:36;;;;;;;9.40;6.00;;;;;;;5.72;64.14;99023.02;104993;1268;74273;-28
2024/03/06 02:27:07;;;;;;;13.30;7.10;;;;;;;5.61;64.72;99027.31;104850;1264;71622;-28
2024/03/06 02:29:35;;;;;;;10.50;6.50;;;;;;;5.53;65.34;99028.34;104818;1270;61004;-28
2024/03/06 02:32:03;;;;;;;10.30;5.20;;;;;;;6.05;64.41;99028.55;104870;1269;61099;-28
2024/03/06 02:34:31;;;;;;;15.00;8.80;;;;;;;6.69;62.35;99034.86;104753;1264;73030;-27
2024/03/06 02:36:59;;;;;;;13.60;8.60;;;;;;;6.77;61.40;99034.70;105147;1264;74258;-26
2024/03/06 02:39:27;;;;;;;15.20;9.00;;;;;;;6.59;61.58;99033.97;104854;1263;72664;-26
2024/03/06 02:41:55;;;;;;;15.40;9.20;;;;;;;6.45;61.95;99034.55;104882;1264;61131;-26
2024/03/06 02:44:23;;;;;;;11.00;7.00;;;;;;;6.09;63.06;99035.25;104846;1269;61228;-28
2024/03/06 02:46:51;;;;;;;13.20;8.90;;;;;;;5.97;63.41;99035.46;104925;1269;71825;-26
2024/03/06 02:49:19;;;;;;;15.70;9.30;;;;;;;5.74;64.37;99042.23;104934;1269;74361;-28
2024/03/06 02:51:47;;;;;;;17.80;10.60;;;;;;;5.76;64.24;99042.25;104937;1264;71471;-28
2024/03/06 02:54:15;;;;;;;16.10;8.30;;;;;;;5.53;65.36;99042.09;104865;1271;61179;-27
2024/03/06 03:04:20;;;;;;;11.00;6.40;;;;;;;5.72;66.44;99051.09;102767;1292;599963;-25
2024/03/06 03:06:48;;;;;;;16.50;10.30;;;;;;;5.53;67.22;99051.92;104888;1266;61259;-26
2024/03/06 03:09:16;;;;;;;17.50;9.40;;;;;;;5.59;67.02;99053.77;104916;1266;61065;-26
2024/03/06 03:11:44;;;;;;;12.30;8.90;;;;;;;5.35;67.97;99051.92;104912;1266;72173;-27
2024/03/06 03:14:12;;;;;;;19.10;10.70;;;;;;;5.25;68.54;99053.20;105429;1260;74270;-28
2024/03/06 03:16:41;;;;;;;17.10;10.50;;;;;;;5.27;68.99;99052.24;105224;1265;72473;-27
2024/03/06 03:19:09;;;;;;;11.70;5.80;;;;;;;5.13;69.28;99054.09;105310;1262;238587;-27
2024/03/06 03:29:20;;;;;;;12.20;7.30;;;;;;;6.11;65.89;99051.67;102691;1293;599019;-25
2024/03/06 03:31:48;;;;;;;12.30;7.30;;;;;;;5.76;67.01;99057.23;104881;1270;61129;-25
2024/03/06 03:34:16;;;;;;;15.60;8.60;;;;;;;5.56;67.83;99057.96;104836;1266;61226;-25
2024/03/06 03:43:34;;;;;;;15.30;7.00;;;;;;;5.53;69.19;99058.43;102577;1295;616359;-27
2024/03/06 03:46:04;;;;;;;15.20;8.30;;;;;;;6.03;67.17;99063.20;105196;1264;61184;-26
2024/03/06 03:48:31;;;;;;;10.30;7.30;;;;;;;6.06;66.59;99067.52;105175;1269;61148;-28
2024/03/06 03:50:58;;;;;;;12.70;8.50;;;;;;;5.96;67.03;99066.34;104950;1264;72001;-28
2024/03/06 03:53:26;;;;;;;11.40;8.00;;;;;;;5.59;68.33;99072.23;105108;1264;74147;-28
2024/03/06 03:55:53;;;;;;;13.90;8.60;;;;;;;5.61;67.95;99069.67;105030;1264;284411;-27
2024/03/06 03:58:20;;;;;;;12.60;6.60;;;;;;;5.52;68.24;99065.61;105260;1258;61084;-26
2024/03/06 04:00:47;;;;;;;25.30;12.60;;;;;;;5.37;67.82;99067.16;105557;1263;61750;-27
2024/03/06 04:03:14;;;;;;;14.40;6.70;;;;;;;5.29;68.79;99062.60;105630;1261;72180;-27
2024/03/06 04:05:41;;;;;;;8.10;5.20;;;;;;;5.89;67.51;99067.82;105616;1257;74102;-26
2024/03/06 04:08:08;;;;;;;13.00;7.20;;;;;;;6.11;66.62;99070.45;105547;1258;73248;-27
2024/03/06 04:10:35;;;;;;;15.70;9.70;;;;;;;6.13;66.46;99072.44;105469;1261;61090;-27
2024/03/06 04:13:04;;;;;;;14.40;7.60;;;;;;;5.93;66.76;99071.90;105593;1258;61140;-27
2024/03/06 04:15:31;;;;;;;15.70;8.40;;;;;;;5.69;67.25;99074.74;105578;1257;72705;-28
2024/03/06 04:17:58;;;;;;;13.60;8.40;;;;;;;5.52;67.95;99082.12;105553;1257;74518;-27
2024/03/06 04:20:26;;;;;;;15.20;8.80;;;;;;;5.43;67.83;99079.70;105380;1261;72508;-27
2024/03/06 04:22:53;;;;;;;12.50;7.00;;;;;;;5.27;68.62;99078.10;105563;1258;61089;-27
2024/03/06 04:25:20;;;;;;;12.80;8.40;;;;;;;5.77;68.56;99082.86;105615;1261;61067;-27
2024/03/06 04:27:47;;;;;;;15.10;7.90;;;;;;;6.39;66.16;99080.26;105478;1258;72854;-27
2024/03/06 04:30:14;;;;;;;18.80;9.00;;;;;;;6.43;65.37;99083.11;105611;1258;74154;-27
2024/03/06 04:32:41;;;;;;;18.00;9.30;;;;;;;6.35;65.41;99078.45;105503;1258;72639;-27
2024/03/06 04:35:11;;;;;;;27.60;11.30;;;;;;;6.14;65.90;99085.82;105564;1258;61144;-27
2024/03/06 04:37:39;;;;;;;21.50;12.10;;;;;;;5.84;66.96;99091.25;105591;1263;61054;-28
2024/03/06 04:40:07;;;;;;;15.80;8.40;;;;;;;5.57;67.99;99098.34;105531;1258;72914;-27
2024/03/06 04:42:37;;;;;;;36.60;19.20;;;;;;;5.33;68.32;99101.48;105334;1258;74236;-27
2024/03/06 04:45:12;;;;;;;21.70;11.90;;;;;;;4.74;71.08;99105.55;105415;1263;72683;-27
2024/03/06 04:47:39;;;;;;;16.60;8.30;;;;;;;5.53;69.18;99104.95;105302;1258;61112;-25
2024/03/06 04:50:10;;;;;;;27.30;12.90;;;;;;;6.22;66.17;99102.20;105598;1263;61147;-25
2024/03/06 04:52:38;;;;;;;16.80;9.80;;;;;;;6.24;65.37;99101.21;105182;1266;73127;-26
2024/03/06 04:55:07;;;;;;;12.80;7.40;;;;;;;6.10;65.11;99097.59;105408;1261;74375;-26
2024/03/06 04:57:34;;;;;;;15.30;7.90;;;;;;;5.91;65.67;99097.17;105319;1261;72870;-26
2024/03/06 05:00:05;;;;;;;14.10;8.40;;;;;;;5.68;66.48;99101.15;105277;1264;61083;-26
2024/03/06 05:02:36;;;;;;;34.20;15.40;;;;;;;5.54;66.92;99106.47;105582;1259;61501;-26
2024/03/06 05:05:22;;;;;;;45.20;19.50;;;;;;;5.38;67.41;99107.89;105414;1263;72895;-27
2024/03/06 05:08:07;;;;;;;32.30;11.70;;;;;;;5.08;68.56;99107.23;105387;1261;74245;-26
2024/03/06 05:10:52;;;;;;;32.60;13.30;;;;;;;5.86;67.36;99108.17;105565;1263;72692;-26
2024/03/06 05:13:37;;;;;;;20.70;12.00;;;;;;;5.94;65.95;99104.91;105539;1262;61056;-26
2024/03/06 05:16:23;;;;;;;19.60;10.40;;;;;;;5.91;65.87;99111.48;105319;1263;61093;-26
2024/03/06 05:19:10;;;;;;;15.80;8.70;;;;;;;5.84;65.71;99114.29;105205;1261;71901;-26
2024/03/06 05:21:55;;;;;;;21.50;11.10;;;;;;;5.26;67.70;99116.33;105406;1263;74210;-26
2024/03/06 05:24:42;;;;;;;24.80;11.90;;;;;;;5.25;67.88;99123.08;105146;1260;72459;-26
2024/03/06 05:27:27;;;;;;;17.70;9.80;;;;;;;5.10;68.80;99122.59;105064;1261;61100;-26
2024/03/06 05:30:12;;;;;;;20.50;11.20;;;;;;;4.79;70.21;99125.55;105182;1263;61161;-26
2024/03/06 05:32:57;;;;;;;20.20;11.80;;;;;;;5.28;69.33;99128.45;105472;1261;72809;-26
2024/03/06 05:35:42;;;;;;;17.50;9.10;;;;;;;5.94;66.71;99130.91;105243;1261;74883;-26
2024/03/06 05:38:28;;;;;;;16.40;9.80;;;;;;;5.72;67.47;99131.91;105990;1251;73093;-26
2024/03/06 05:41:13;;;;;;;15.00;8.70;;;;;;;5.57;67.96;99132.96;105771;1255;61121;-27
2024/03/06 05:43:58;;;;;;;17.40;7.80;;;;;;;5.38;68.58;99134.59;105954;1253;61206;-26
2024/03/06 05:46:43;;;;;;;20.00;10.50;;;;;;;5.06;69.54;99136.61;105984;1254;72835;-26
2024/03/06 05:49:28;;;;;;;18.90;9.40;;;;;;;4.95;71.22;99138.59;105978;1251;74679;-26
2024/03/06 05:52:14;;;;;;;22.30;11.00;;;;;;;5.52;69.52;99138.79;105950;1257;72736;-26
2024/03/06 05:54:58;;;;;;;15.20;9.20;;;;;;;5.60;68.85;99138.83;105934;1251;61109;-26
2024/03/06 05:57:45;;;;;;;19.70;11.30;;;;;;;5.62;68.63;99141.09;105873;1257;61105;-26
2024/03/06 06:00:30;;;;;;;15.90;9.60;;;;;;;4.89;71.88;99143.91;105836;1254;73652;-25
2024/03/06 06:02:57;;;;;;;16.70;9.60;;;;;;;4.90;71.64;99145.07;105922;1254;74540;-25
2024/03/06 06:05:25;;;;;;;10.80;7.50;;;;;;;4.89;72.52;99145.45;105807;1256;74348;-24
2024/03/06 06:07:52;;;;;;;16.10;9.40;;;;;;;4.74;72.62;99146.45;105790;1257;61057;-25
2024/03/06 06:10:19;;;;;;;10.70;6.60;;;;;;;4.59;73.79;99146.77;105939;1254;61201;-25
2024/03/06 06:12:49;;;;;;;12.80;6.30;;;;;;;5.17;71.89;99153.54;105996;1251;72916;-24
2024/03/06 06:15:16;;;;;;;17.60;8.20;;;;;;;5.43;70.76;99158.93;105928;1258;74798;-24
2024/03/06 06:17:45;;;;;;;17.20;9.70;;;;;;;5.29;71.30;99157.30;106024;1251;72310;-24
2024/03/06 06:20:16;;;;;;;11.10;7.10;;;;;;;4.96;72.68;99156.61;106027;1250;61051;-24
2024/03/06 06:22:44;;;;;;;19.60;10.60;;;;;;;4.85;73.33;99162.91;105847;1257;61159;-24
2024/03/06 06:25:12;;;;;;;30.50;15.50;;;;;;;4.78;73.35;99162.27;106020;1254;73490;-24
2024/03/06 06:27:39;;;;;;;22.30;11.80;;;;;;;4.82;73.90;99165.79;106002;1257;74755;-24
2024/03/06 06:30:11;;;;;;;20.50;11.60;;;;;;;5.35;71.90;99168.50;105955;1252;72641;-24
2024/03/06 06:32:38;;;;;;;15.60;8.30;;;;;;;5.20;72.75;99172.12;105607;1257;61201;-24
2024/03/06 06:35:06;;;;;;;25.60;13.60;;;;;;;4.98;73.53;99176.42;105670;1255;61044;-24
2024/03/06 06:37:34;;;;;;;15.10;9.30;;;;;;;5.15;73.03;99179.64;105750;1260;71729;-24
2024/03/06 06:40:06;;;;;;;28.30;13.80;;;;;;;4.85;73.96;99178.90;105989;1254;74003;-24
2024/03/06 06:42:35;;;;;;;20.10;10.70;;;;;;;4.70;74.33;99187.94;105821;1257;72629;-24
2024/03/06 06:45:03;;;;;;;18.80;9.60;;;;;;;5.17;73.98;99186.22;105930;1254;61094;-24
2024/03/06 06:47:31;;;;;;;15.20;8.90;;;;;;;5.67;71.83;99186.31;105935;1256;61042;-24
2024/03/06 06:49:58;;;;;;;13.90;8.20;;;;;;;5.40;72.40;99187.47;105924;1260;74477;-24
2024/03/06 06:52:27;;;;;;;16.40;9.10;;;;;;;5.37;72.48;99191.45;105824;1254;76119;-24
2024/03/06 06:54:55;;;;;;;20.80;11.30;;;;;;;5.08;73.04;99194.66;105949;1251;74583;-24
2024/03/06 06:57:23;;;;;;;15.90;9.10;;;;;;;4.97;74.18;99195.45;105847;1256;61150;-24
2024/03/06 06:59:51;;;;;;;12.00;6.20;;;;;;;4.79;74.83;99194.31;105855;1251;61648;-23
2024/03/06 07:02:19;;;;;;;51.30;26.30;;;;;;;5.29;74.30;99196.21;105812;1255;74556;-24
2024/03/06 07:04:48;;;;;;;39.70;20.90;;;;;;;5.51;72.77;99198.27;105841;1251;75697;-24
2024/03/06 07:07:16;;;;;;;28.30;15.80;;;;;;;5.24;72.62;99198.55;105964;1257;74157;-23
2024/03/06 07:09:44;;;;;;;44.20;20.10;;;;;;;4.83;74.44;99200.63;105963;1254;62185;-24
2024/03/06 07:12:11;;;;;;;16.20;9.10;;;;;;;4.96;74.35;99202.71;105911;1254;61569;-24
2024/03/06 07:14:39;;;;;;;64.30;27.00;;;;;;;4.90;74.89;99201.31;106002;1251;74860;-24
2024/03/06 07:17:06;;;;;;;30.60;16.70;;;;;;;4.63;75.96;99205.02;106004;1256;76068;-24
2024/03/06 07:19:33;;;;;;;35.70;16.10;;;;;;;5.18;74.78;99208.02;105968;1251;74385;-24
2024/03/06 07:22:01;;;;;;;15.30;9.70;;;;;;;5.53;72.42;99208.98;106006;1258;61963;-23
2024/03/06 07:24:28;;;;;;;33.00;14.40;;;;;;;5.68;71.69;99209.49;106006;1256;61700;-23
2024/03/06 07:26:56;;;;;;;51.00;21.80;;;;;;;5.50;72.20;99212.56;105894;1251;74778;-23
2024/03/06 07:29:23;;;;;;;12.20;8.80;;;;;;;5.28;73.14;99212.44;105950;1254;75981;-24
2024/03/06 07:31:51;;;;;;;17.00;10.10;;;;;;;5.00;74.68;99214.55;106000;1254;74234;-24
2024/03/06 07:34:20;;;;;;;18.80;10.10;;;;;;;4.82;74.71;99215.66;106011;1251;61143;-24
2024/03/06 07:36:48;;;;;;;10.60;7.50;;;;;;;5.08;74.59;99215.09;105942;1256;61250;-24
2024/03/06 07:39:16;;;;;;;11.50;7.30;;;;;;;5.58;72.35;99218.52;106025;1255;73301;-24
2024/03/06 07:41:43;;;;;;;8.80;6.60;;;;;;;5.66;71.36;99220.81;105953;1263;74798;-24
2024/03/06 07:44:10;;;;;;;11.50;7.30;;;;;;;5.44;71.34;99216.55;106043;1253;74515;-23
2024/03/06 07:46:38;;;;;;;9.60;7.20;;;;;;;5.25;72.12;99220.92;105988;1253;61836;-23
2024/03/06 07:49:05;;;;;;;14.90;8.30;;;;;;;5.02;73.14;99223.70;106017;1255;62023;-23
2024/03/06 07:51:34;;;;;;;12.50;7.70;;;;;;;4.98;73.80;99223.25;105981;1254;74694;-23
2024/03/06 07:54:03;;;;;;;11.00;6.30;;;;;;;4.68;74.78;99220.58;105765;1257;75423;-23
2024/03/06 07:56:31;;;;;;;9.60;6.40;;;;;;;5.12;73.74;99224.20;105906;1251;74216;-23
2024/03/06 07:59:00;;;;;;;13.80;7.40;;;;;;;5.26;72.40;99225.98;106004;1257;61824;-23
2024/03/06 08:01:28;;;;;;;14.30;8.20;;;;;;;5.13;72.33;99231.20;105827;1257;62002;-23
2024/03/06 08:03:56;;;;;;;15.60;8.80;;;;;;;4.79;73.67;99228.92;105874;1254;74270;-23
2024/03/06 08:06:26;;;;;;;12.70;9.00;;;;;;;4.51;74.68;99235.56;105926;1258;75034;-23
2024/03/06 08:08:53;;;;;;;13.90;8.70;;;;;;;4.51;75.30;99235.90;106006;1256;74304;-23
2024/03/06 08:11:22;;;;;;;13.00;7.20;;;;;;;4.96;74.10;99240.02;105969;1251;61943;-23
2024/03/06 08:13:56;;;;;;;14.10;8.70;;;;;;;5.07;73.03;99236.52;105859;1256;61815;-23
2024/03/06 08:16:23;;;;;;;11.90;7.60;;;;;;;5.11;73.08;99235.45;105876;1257;74407;-23
2024/03/06 08:18:50;;;;;;;15.30;9.70;;;;;;;4.99;73.34;99235.59;105950;1258;74898;-23
2024/03/06 08:21:19;;;;;;;14.30;9.70;;;;;;;4.65;74.51;99239.13;105976;1257;74109;-24
2024/03/06 08:23:49;;;;;;;12.70;8.00;;;;;;;4.64;74.75;99241.58;105990;1254;62037;-23
2024/03/06 08:26:18;;;;;;;11.30;7.00;;;;;;;5.23;72.97;99242.88;105877;1258;62053;-23
2024/03/06 08:28:46;;;;;;;11.80;7.90;;;;;;;5.49;71.90;99247.56;105757;1257;75413;-23
2024/03/06 08:31:13;;;;;;;14.30;9.30;;;;;;;5.47;72.05;99248.23;105873;1254;76185;-23
2024/03/06 08:33:41;;;;;;;15.70;9.20;;;;;;;5.32;72.61;99247.87;105892;1250;74432;-24
2024/03/06 08:36:09;;;;;;;13.30;7.80;;;;;;;5.09;73.23;99253.41;105914;1251;61188;-23
2024/03/06 08:38:36;;;;;;;12.80;6.90;;;;;;;4.73;75.43;99254.52;105845;1265;62083;-23
2024/03/06 08:48:44;;;;;;;15.80;10.60;;;;;;;5.31;72.66;99263.94;102725;1292;598792;-23
2024/03/06 08:51:12;;;;;;;16.60;10.20;;;;;;;4.94;73.53;99269.19;104822;1266;63291;-22
2024/03/06 08:53:40;;;;;;;12.00;6.30;;;;;;;4.88;73.62;99268.66;104883;1266;62083;-23
2024/03/06 08:56:09;;;;;;;15.90;8.20;;;;;;;4.88;74.31;99272.95;104858;1266;74818;-22
2024/03/06 08:58:37;;;;;;;10.70;7.10;;;;;;;5.56;72.20;99273.70;104502;1271;75926;-24
2024/03/06 09:01:05;;;;;;;13.80;9.30;;;;;;;5.43;72.51;99274.63;104837;1270;75410;-23
2024/03/06 09:03:33;;;;;;;13.80;8.30;;;;;;;5.40;72.55;99276.48;104744;1263;244849;-23
2024/03/06 09:06:02;;;;;;;24.50;13.20;;;;;;;5.34;72.76;99280.48;104892;1263;61816;-23
2024/03/06 09:08:30;;;;;;;12.50;8.20;;;;;;;4.78;74.52;99280.77;105055;1268;76020;-23
2024/03/06 09:10:58;;;;;;;14.00;9.10;;;;;;;4.63;75.17;99283.92;104825;1263;75750;-23
2024/03/06 09:13:27;;;;;;;16.60;10.10;;;;;;;4.82;75.06;99284.86;104875;1267;74297;-24
2024/03/06 09:15:55;;;;;;;16.10;10.40;;;;;;;5.55;73.20;99284.63;105121;1266;61531;-23
2024/03/06 09:18:22;;;;;;;15.50;8.20;;;;;;;5.67;71.97;99284.29;105035;1267;62465;-23
2024/03/06 09:20:50;;;;;;;17.70;11.00;;;;;;;5.36;72.56;99280.88;104845;1268;73926;-23
2024/03/06 09:23:19;;;;;;;16.90;9.60;;;;;;;5.16;72.92;99282.64;104919;1269;76180;-23
2024/03/06 09:25:48;;;;;;;10.60;7.20;;;;;;;5.00;74.19;99285.59;105138;1268;75240;-24
2024/03/06 09:28:16;;;;;;;14.30;8.50;;;;;;;5.21;73.27;99283.07;105090;1267;61650;-23
2024/03/06 09:30:44;;;;;;;11.10;7.90;;;;;;;5.30;72.46;99284.83;105181;1263;61497;-23
2024/03/06 09:33:12;;;;;;;9.60;8.20;;;;;;;5.49;71.59;99286.65;105180;1263;75482;-23
2024/03/06 09:35:44;;;;;;;14.40;9.70;;;;;;;5.09;72.16;99284.40;104903;1268;76573;-23
2024/03/06 09:38:14;;;;;;;13.80;8.70;;;;;;;4.68;73.52;99287.63;105230;1263;73685;-23
2024/03/06 09:40:46;;;;;;;19.80;11.50;;;;;;;4.66;73.82;99292.20;105166;1264;61814;-24
2024/03/06 09:43:14;;;;;;;10.90;7.00;;;;;;;4.50;75.17;99293.41;105108;1268;62888;-23
2024/03/06 09:45:44;;;;;;;16.40;11.40;;;;;;;5.22;73.12;99300.21;105004;1268;74788;-23
2024/03/06 09:48:12;;;;;;;11.70;8.60;;;;;;;5.44;71.16;99302.27;104619;1273;75756;-23
2024/03/06 09:50:43;;;;;;;16.50;8.70;;;;;;;5.39;71.56;99300.68;104894;1263;75512;-24
2024/03/06 09:53:12;;;;;;;15.30;9.30;;;;;;;5.16;71.59;99294.34;104778;1273;61185;-24
2024/03/06 09:55:41;;;;;;;9.70;6.90;;;;;;;4.80;73.17;99303.33;104930;1263;62486;-24
2024/03/06 09:58:09;;;;;;;17.40;11.80;;;;;;;4.72;73.97;99299.30;104790;1264;74821;-24
2024/03/06 10:00:36;;;;;;;14.40;9.00;;;;;;;4.90;73.79;99299.36;104821;1263;75434;-24
2024/03/06 10:03:08;;;;;;;14.70;9.40;;;;;;;5.32;72.36;99297.95;104785;1263;74232;-24
2024/03/06 10:05:36;;;;;;;26.00;12.90;;;;;;;5.38;72.32;99301.74;104777;1267;62854;-24
2024/03/06 10:08:05;;;;;;;16.50;10.00;;;;;;;5.27;72.82;99304.61;104776;1263;61127;-24
2024/03/06 10:10:33;;;;;;;10.60;7.00;;;;;;;4.98;73.89;99305.79;104783;1263;74675;-24
2024/03/06 10:13:01;;;;;;;15.10;9.00;;;;;;;4.83;74.69;99307.82;104730;1269;77134;-25
2024/03/06 10:15:29;;;;;;;14.50;8.60;;;;;;;5.32;74.35;99307.05;104887;1267;75337;-25
2024/03/06 10:18:32;;;;;;;15.60;9.00;;;;;;;5.65;73.24;99311.81;105171;1268;63988;-23
2024/03/06 10:21:00;;;;;;;26.20;14.00;;;;;;;5.63;72.37;99311.94;104896;1273;62827;-23
2024/03/06 10:23:29;;;;;;;22.20;13.70;;;;;;;5.29;73.08;99308.77;104805;1271;75387;-23
2024/03/06 10:25:57;;;;;;;24.90;14.40;;;;;;;5.01;74.45;99308.79;105154;1263;77094;-23
2024/03/06 10:28:26;;;;;;;19.00;11.50;;;;;;;4.69;75.54;99310.84;105112;1266;74453;-24
2024/03/06 10:31:03;;;;;;;14.90;8.60;;;;;;;4.74;75.46;99311.59;105010;1263;63659;-24
2024/03/06 10:33:31;;;;;;;16.40;10.50;;;;;;;5.44;73.48;99310.22;104728;1264;61242;-24
2024/03/06 10:35:59;;;;;;;15.10;9.60;;;;;;;5.76;71.47;99306.48;105047;1266;75616;-24
2024/03/06 10:38:33;;;;;;;15.90;9.30;;;;;;;5.54;70.89;99303.13;104909;1263;77203;-24
2024/03/06 10:41:02;;;;;;;16.80;9.90;;;;;;;5.13;72.61;99306.23;104923;1271;75216;-24
2024/03/06 10:48:24;;;;;;;16.90;10.60;;;;;;;5.07;73.53;99304.64;104934;1268;63604;-24
2024/03/06 10:50:52;;;;;;;19.80;10.70;;;;;;;5.06;72.93;99300.90;104825;1263;75827;-24
2024/03/06 10:53:22;;;;;;;12.50;8.40;;;;;;;5.21;71.90;99299.77;104778;1272;77173;-24
2024/03/06 10:55:55;;;;;;;17.00;9.10;;;;;;;5.13;71.50;99298.66;104791;1268;75533;-24
2024/03/06 10:58:23;;;;;;;17.40;10.00;;;;;;;4.92;72.64;99301.19;104789;1263;62070;-24
2024/03/06 11:00:51;;;;;;;18.50;11.90;;;;;;;5.07;73.61;99305.70;104770;1269;61093;-24
2024/03/06 11:03:19;;;;;;;11.80;7.10;;;;;;;5.70;71.76;99305.84;104722;1263;72799;-23
2024/03/06 11:05:47;;;;;;;16.30;10.20;;;;;;;5.86;70.40;99304.06;104917;1268;76796;-24
2024/03/06 11:08:16;;;;;;;15.50;9.70;;;;;;;5.45;70.53;99303.63;104977;1263;75196;-24
2024/03/06 11:10:45;;;;;;;24.80;12.60;;;;;;;4.97;71.80;99304.52;104948;1263;61173;-25
2024/03/06 11:13:20;;;;;;;19.10;11.30;;;;;;;4.84;72.15;99304.52;104824;1263;62836;-24
2024/03/06 11:15:48;;;;;;;17.00;9.60;;;;;;;4.69;72.55;99303.41;104718;1269;73506;-24
2024/03/06 11:18:28;;;;;;;23.50;12.70;;;;;;;5.10;71.60;99310.02;104799;1263;76180;-24
2024/03/06 11:21:03;;;;;;;22.40;13.10;;;;;;;5.30;70.35;99312.70;104729;1268;75499;-24
2024/03/06 11:23:31;;;;;;;21.50;11.70;;;;;;;5.26;69.87;99318.42;104724;1265;62847;-24
2024/03/06 11:26:06;;;;;;;17.60;10.40;;;;;;;5.01;69.85;99312.40;104743;1268;62906;-24
2024/03/06 11:28:36;;;;;;;21.50;10.70;;;;;;;4.97;69.94;99315.72;105009;1265;75802;-25
2024/03/06 11:31:18;;;;;;;17.20;11.00;;;;;;;4.77;71.03;99318.52;105293;1264;76048;-24
2024/03/06 11:33:47;;;;;;;16.20;9.50;;;;;;;4.87;71.90;99320.66;105499;1257;75613;-26
2024/03/06 11:36:29;;;;;;;16.60;10.30;;;;;;;5.55;68.94;99320.83;105111;1258;62620;-25
2024/03/06 11:39:08;;;;;;;19.50;10.20;;;;;;;5.76;68.20;99324.27;105085;1257;61306;-24
2024/03/06 11:41:49;;;;;;;29.90;12.30;;;;;;;5.61;68.37;99324.04;105147;1256;75718;-25
2024/03/06 11:44:22;;;;;;;15.40;9.10;;;;;;;5.39;69.52;99320.45;105092;1256;76173;-24
2024/03/06 11:46:58;;;;;;;15.30;9.40;;;;;;;5.01;70.19;99321.86;105168;1259;75329;-25
2024/03/06 11:49:28;;;;;;;15.40;8.90;;;;;;;4.91;69.68;99318.42;105334;1265;62663;-25
2024/03/06 11:51:58;;;;;;;25.20;15.00;;;;;;;5.36;69.13;99319.80;105421;1256;61433;-25
2024/03/06 11:54:27;;;;;;;24.70;14.50;;;;;;;5.71;68.31;99317.81;105307;1257;76082;-24
2024/03/06 11:56:57;;;;;;;38.10;19.50;;;;;;;5.43;68.78;99318.04;105572;1257;75544;-24
2024/03/06 11:59:29;;;;;;;15.50;10.50;;;;;;;5.40;68.43;99320.40;105510;1261;73232;-25
2024/03/06 12:02:01;;;;;;;20.20;11.60;;;;;;;5.22;68.53;99321.08;105189;1261;61574;-25
2024/03/06 12:04:30;;;;;;;23.80;12.10;;;;;;;4.94;68.80;99322.90;105097;1264;62511;-26
2024/03/06 12:07:08;;;;;;;19.10;10.40;;;;;;;4.74;69.98;99326.04;105199;1257;76896;-26
2024/03/06 12:09:38;;;;;;;18.80;11.90;;;;;;;4.93;70.63;99325.20;105169;1257;78391;-26
2024/03/06 12:12:10;;;;;;;24.20;11.70;;;;;;;5.14;70.03;99325.30;105078;1256;75402;-25
2024/03/06 12:14:40;;;;;;;24.80;10.60;;;;;;;5.44;69.12;99323.64;105124;1257;61787;-25
2024/03/06 12:17:14;;;;;;;23.00;12.80;;;;;;;5.08;69.23;99320.25;105200;1262;62498;-26
2024/03/06 12:19:44;;;;;;;26.80;16.40;;;;;;;4.69;70.49;99321.48;105136;1257;75749;-26
2024/03/06 12:22:15;;;;;;;33.60;18.50;;;;;;;4.31;72.57;99319.45;105281;1261;76750;-26
2024/03/06 12:24:43;;;;;;;36.60;19.90;;;;;;;4.46;72.80;99319.21;105193;1257;75409;-27
2024/03/06 12:27:13;;;;;;;23.90;12.60;;;;;;;4.47;72.75;99315.87;105298;1257;64721;-27
2024/03/06 12:29:41;;;;;;;21.90;13.10;;;;;;;5.06;70.94;99315.06;105454;1257;61128;-26
2024/03/06 12:32:17;;;;;;;26.40;15.30;;;;;;;5.27;69.28;99313.02;105479;1259;75526;-27
2024/03/06 12:34:59;;;;;;;23.10;12.90;;;;;;;5.35;67.96;99314.16;105429;1262;76998;-26
2024/03/06 12:37:32;;;;;;;20.90;12.80;;;;;;;4.85;69.72;99315.27;105192;1256;75377;-28
2024/03/06 12:40:04;;;;;;;27.80;13.30;;;;;;;4.93;69.25;99319.52;105159;1257;61709;-27
2024/03/06 12:42:32;;;;;;;31.80;17.00;;;;;;;4.82;69.94;99319.58;105322;1257;64064;-27
2024/03/06 12:45:03;;;;;;;35.10;17.60;;;;;;;4.34;71.30;99319.62;105430;1256;75796;-27
2024/03/06 12:47:31;;;;;;;25.70;13.60;;;;;;;4.37;72.57;99322.91;105383;1262;75739;-28
2024/03/06 12:50:00;;;;;;;22.40;12.20;;;;;;;5.06;69.67;99324.48;105573;1256;74001;-28
2024/03/06 12:52:28;;;;;;;20.20;9.10;;;;;;;5.39;67.81;99324.44;105300;1257;61835;-27
2024/03/06 12:54:56;;;;;;;20.10;10.30;;;;;;;5.56;66.48;99325.20;105327;1255;61448;-27
2024/03/06 12:57:24;;;;;;;24.60;12.10;;;;;;;5.49;66.56;99326.48;105452;1259;74393;-28
2024/03/06 12:59:52;;;;;;;17.90;10.90;;;;;;;5.09;66.87;99326.05;105642;1257;77141;-28
2024/03/06 13:02:20;;;;;;;19.70;11.00;;;;;;;4.82;67.54;99325.28;105522;1257;73511;-28